createdAt,value
2022-08-04T00:01:01.748Z,19.13
2022-08-04T00:03:34.554Z,19.03
2022-08-04T00:06:10.047Z,17.30
2022-08-04T00:08:45.776Z,17.97
2022-08-04T00:11:20.876Z,17.70
2022-08-04T00:14:02.861Z,18.43
2022-08-04T00:16:39.042Z,18.13
2022-08-04T00:19:12.345Z,17.70
2022-08-04T00:21:46.974Z,18.17
2022-08-04T00:24:17.533Z,18.47
2022-08-04T00:26:49.286Z,18.10
2022-08-04T00:29:18.011Z,18.53
2022-08-04T00:31:56.814Z,17.93
2022-08-04T00:34:28.440Z,18.00
2022-08-04T00:36:57.819Z,17.07
2022-08-04T00:39:27.247Z,18.20
2022-08-04T00:42:17.556Z,18.40
2022-08-04T00:45:01.782Z,18.13
2022-08-04T00:47:45.917Z,18.20
2022-08-04T00:50:25.792Z,18.50
2022-08-04T00:53:07.594Z,18.73
2022-08-04T00:55:58.777Z,18.90
2022-08-04T00:58:36.170Z,18.40
2022-08-04T01:01:06.525Z,18.67
2022-08-04T01:03:53.216Z,18.03
2022-08-04T01:06:36.752Z,19.50
2022-08-04T01:09:38.376Z,18.43
2022-08-04T01:12:22.949Z,18.33
2022-08-04T01:15:04.121Z,18.87
2022-08-04T01:18:01.209Z,19.17
2022-08-04T01:20:35.364Z,18.23
2022-08-04T01:23:45.487Z,18.70
2022-08-04T01:26:53.669Z,18.37
2022-08-04T01:29:46.681Z,18.20
2022-08-04T01:32:21.089Z,18.10
2022-08-04T01:34:57.639Z,18.30
2022-08-04T01:37:49.824Z,19.43
2022-08-04T01:40:18.535Z,19.30
2022-08-04T01:42:46.740Z,20.07
2022-08-04T01:45:16.874Z,20.03
2022-08-04T01:47:51.265Z,19.30
2022-08-04T01:50:20.410Z,19.33
2022-08-04T01:52:51.358Z,19.17
2022-08-04T01:55:22.756Z,30.87
2022-08-04T01:57:52.651Z,19.37
2022-08-04T02:00:24.010Z,18.93
2022-08-04T02:02:56.356Z,19.00
2022-08-04T02:06:02.581Z,19.30
2022-08-04T02:08:21.815Z,18.30
2022-08-04T02:11:02.244Z,19.17
2022-08-04T02:13:40.037Z,19.30
2022-08-04T02:16:18.195Z,19.40
2022-08-04T02:19:02.713Z,19.63
2022-08-04T02:21:42.484Z,19.63
2022-08-04T02:24:17.587Z,17.90
2022-08-04T02:26:50.840Z,19.27
2022-08-04T02:29:31.719Z,19.20
2022-08-04T02:32:06.244Z,19.33
2022-08-04T02:34:40.152Z,20.40
2022-08-04T02:37:11.924Z,20.57
2022-08-04T02:39:48.705Z,19.50
2022-08-04T02:42:18.594Z,19.57
2022-08-04T02:44:51.778Z,19.90
2022-08-04T02:47:23.395Z,19.93
2022-08-04T02:50:28.879Z,19.87
2022-08-04T02:52:59.497Z,18.93
2022-08-04T02:55:30.444Z,20.00
2022-08-04T02:58:00.354Z,19.77
2022-08-04T03:00:29.065Z,20.50
2022-08-04T03:03:17.539Z,19.90
2022-08-04T03:06:10.149Z,19.60
2022-08-04T03:09:20.131Z,21.03
2022-08-04T03:12:13.696Z,19.00
2022-08-04T03:15:06.626Z,20.33
2022-08-04T03:18:10.638Z,19.23
2022-08-04T03:21:32.805Z,19.50
2022-08-04T03:24:50.519Z,19.50
2022-08-04T03:27:44.625Z,20.33
2022-08-04T03:30:20.244Z,19.77
2022-08-04T03:33:19.642Z,19.87
2022-08-04T03:36:17.810Z,19.30
2022-08-04T03:39:10.390Z,20.33
2022-08-04T03:42:04.442Z,19.90
2022-08-04T03:45:23.761Z,19.57
2022-08-04T03:48:14.755Z,19.50
2022-08-04T03:51:32.614Z,19.73
2022-08-04T03:54:33.827Z,20.13
2022-08-04T03:57:59.027Z,20.40
2022-08-04T04:00:37.242Z,19.00
2022-08-04T04:03:40.645Z,21.00
2022-08-04T04:06:43.363Z,20.67
2022-08-04T04:10:05.974Z,19.30
2022-08-04T04:12:58.552Z,19.77
2022-08-04T04:15:50.249Z,19.27
2022-08-04T04:18:48.964Z,19.87
2022-08-04T04:21:47.587Z,20.80
2022-08-04T04:24:50.934Z,20.63
2022-08-04T04:27:27.727Z,19.40
2022-08-04T04:30:04.571Z,20.87
2022-08-04T04:32:54.173Z,19.43
2022-08-04T04:35:36.520Z,21.33
2022-08-04T04:38:23.595Z,20.80
2022-08-04T04:41:06.980Z,20.53
2022-08-04T04:43:52.779Z,20.90
2022-08-04T04:46:31.137Z,21.37
2022-08-04T04:49:14.577Z,20.70
2022-08-04T04:51:56.994Z,21.27
2022-08-04T04:54:35.258Z,21.93
2022-08-04T04:57:53.276Z,21.23
2022-08-04T05:00:16.448Z,20.20
2022-08-04T05:03:12.388Z,20.70
2022-08-04T05:06:12.047Z,20.90
2022-08-04T05:09:03.297Z,19.50
2022-08-04T05:11:51.955Z,19.87
2022-08-04T05:14:34.478Z,19.70
2022-08-04T05:17:16.940Z,19.80
2022-08-04T05:19:54.921Z,20.43
2022-08-04T05:22:30.196Z,19.50
2022-08-04T05:25:06.127Z,19.60
2022-08-04T05:27:40.456Z,20.00
2022-08-04T05:30:10.367Z,19.10
2022-08-04T05:32:45.745Z,18.73
2022-08-04T05:35:47.847Z,20.23
2022-08-04T05:38:20.963Z,19.07
2022-08-04T05:41:02.933Z,19.57
2022-08-04T05:43:32.176Z,19.40
2022-08-04T05:46:02.226Z,18.97
2022-08-04T05:48:31.365Z,20.50
2022-08-04T05:51:01.380Z,19.20
2022-08-04T05:53:32.550Z,18.60
2022-08-04T05:56:03.244Z,18.47
2022-08-04T05:58:35.677Z,19.40
2022-08-04T06:01:05.077Z,19.67
2022-08-04T06:03:35.449Z,20.20
2022-08-04T06:06:05.327Z,19.40
2022-08-04T06:08:35.079Z,19.23
2022-08-04T06:11:06.575Z,19.23
2022-08-04T06:13:49.572Z,18.80
2022-08-04T06:16:34.675Z,20.03
2022-08-04T06:20:03.367Z,19.20
2022-08-04T06:21:59.905Z,19.87
2022-08-04T06:24:32.468Z,19.60
2022-08-04T06:27:01.650Z,18.47
2022-08-04T06:29:36.294Z,19.73
2022-08-04T06:32:28.540Z,19.00
2022-08-04T06:35:03.083Z,18.27
2022-08-04T06:37:41.822Z,18.30
2022-08-04T06:40:30.797Z,18.47
2022-08-04T06:43:01.900Z,19.03
2022-08-04T06:45:30.812Z,19.20
2022-08-04T06:48:00.576Z,18.70
2022-08-04T06:51:27.744Z,18.93
2022-08-04T06:53:20.757Z,19.30
2022-08-04T06:55:52.792Z,19.37
2022-08-04T06:58:23.049Z,18.63
2022-08-04T07:00:53.308Z,18.03
2022-08-04T07:03:23.099Z,19.00
2022-08-04T07:05:53.324Z,18.60
2022-08-04T07:08:22.806Z,19.20
2022-08-04T07:10:58.426Z,18.37
2022-08-04T07:13:32.254Z,19.27
2022-08-04T07:16:03.580Z,19.17
2022-08-04T07:18:32.651Z,18.43
2022-08-04T07:21:01.492Z,19.00
2022-08-04T07:23:30.073Z,18.03
2022-08-04T07:26:13.105Z,18.30
2022-08-04T07:28:42.685Z,18.40
2022-08-04T07:31:33.736Z,18.83
2022-08-04T07:34:20.884Z,18.57
2022-08-04T07:36:55.170Z,20.23
2022-08-04T07:39:28.290Z,19.20
2022-08-04T07:42:01.702Z,19.17
2022-08-04T07:44:33.287Z,18.63
2022-08-04T07:47:02.125Z,19.83
2022-08-04T07:49:55.001Z,20.07
2022-08-04T07:52:21.244Z,19.67
2022-08-04T07:54:51.782Z,19.47
2022-08-04T07:57:41.577Z,18.40
2022-08-04T08:00:19.316Z,19.27
2022-08-04T08:02:51.825Z,20.70
2022-08-04T08:05:21.407Z,18.30
2022-08-04T08:07:54.467Z,18.33
2022-08-04T08:10:25.863Z,20.23
2022-08-04T08:12:55.854Z,19.27
2022-08-04T08:15:25.062Z,19.43
2022-08-04T08:18:00.005Z,19.60
2022-08-04T08:20:33.771Z,18.80
2022-08-04T08:23:05.268Z,19.67
2022-08-04T08:25:34.608Z,18.77
2022-08-04T08:28:13.074Z,18.77
2022-08-04T08:30:41.975Z,18.63
2022-08-04T08:33:13.807Z,19.37
2022-08-04T08:35:54.409Z,20.10
2022-08-04T08:38:38.968Z,19.43
2022-08-04T08:41:42.484Z,19.03
2022-08-04T08:44:46.573Z,18.47
2022-08-04T08:47:29.862Z,18.27
2022-08-04T08:50:42.981Z,18.63
2022-08-04T08:53:32.206Z,17.27
2022-08-04T08:56:18.218Z,18.93
2022-08-04T08:59:04.865Z,17.33
2022-08-04T09:02:04.061Z,19.03
2022-08-04T09:05:09.025Z,19.17
2022-08-04T09:07:55.460Z,17.63
2022-08-04T10:41:06.151Z,17.10
2022-08-04T10:43:47.452Z,17.77
2022-08-04T10:46:19.663Z,17.37
2022-08-04T10:48:55.287Z,16.27
2022-08-04T10:51:31.314Z,16.10
2022-08-04T10:54:27.823Z,16.67
2022-08-04T10:57:02.335Z,17.67
2022-08-04T10:59:39.144Z,16.00
2022-08-04T11:02:45.166Z,16.03
2022-08-04T11:05:34.380Z,16.00
2022-08-04T11:08:42.339Z,16.63
2022-08-04T11:36:57.384Z,17.77
2022-08-04T12:15:35.083Z,18.03
2022-08-04T12:18:13.883Z,18.02
2022-08-04T12:26:49.717Z,19.65
2022-08-04T12:33:17.798Z,17.27
2022-08-04T12:52:06.820Z,17.23
2022-08-04T14:23:02.786Z,14.93
2022-08-04T14:25:35.387Z,15.75
2022-08-04T14:28:04.248Z,16.23
2022-08-04T14:30:35.399Z,16.20
2022-08-04T14:34:02.380Z,17.25
2022-08-04T14:36:04.090Z,15.13
2022-08-04T14:38:52.640Z,15.13
2022-08-04T14:41:25.324Z,16.40
2022-08-04T14:43:55.664Z,16.20
2022-08-04T14:46:36.158Z,16.50
2022-08-04T14:49:10.352Z,16.60
2022-08-04T14:51:43.633Z,16.73
2022-08-04T14:54:18.833Z,17.42
2022-08-04T14:56:54.708Z,16.40
2022-08-04T14:59:23.565Z,15.60
2022-08-04T15:02:01.304Z,15.77
2022-08-04T15:04:32.382Z,16.45
2022-08-04T15:07:04.436Z,15.95
2022-08-04T15:09:37.031Z,15.57
2022-08-04T15:12:06.667Z,16.65
2022-08-04T15:14:38.265Z,15.20
2022-08-04T15:17:27.174Z,15.25
2022-08-04T15:19:57.682Z,15.13
2022-08-04T15:22:26.057Z,16.45
2022-08-04T15:24:56.217Z,15.98
2022-08-04T15:27:28.527Z,16.33
2022-08-04T15:30:02.706Z,16.67
2022-08-04T15:32:33.519Z,16.83
2022-08-04T15:35:06.884Z,16.98
2022-08-04T15:37:44.446Z,17.35
2022-08-04T15:40:33.126Z,15.20
2022-08-04T15:43:18.953Z,17.05
2022-08-04T15:46:33.034Z,15.90
2022-08-04T15:48:41.352Z,16.77
2022-08-04T15:51:14.384Z,16.38
2022-08-04T15:54:21.127Z,16.00
2022-08-04T15:57:02.221Z,16.38
2022-08-04T16:00:00.714Z,16.02
2022-08-04T16:02:43.767Z,15.75
2022-08-04T16:05:41.793Z,16.83
2022-08-04T16:08:12.370Z,16.47
2022-08-04T16:10:43.171Z,16.40
2022-08-04T16:13:15.126Z,15.90
2022-08-04T16:15:48.659Z,16.07
2022-08-04T16:18:39.516Z,16.40
2022-08-04T16:21:23.321Z,15.70
2022-08-04T16:24:15.085Z,15.40
2022-08-04T16:26:54.321Z,16.77
2022-08-04T16:29:47.350Z,15.63
2022-08-04T16:32:18.357Z,15.93
2022-08-04T16:34:59.822Z,16.37
2022-08-04T16:37:35.565Z,16.23
2022-08-04T16:40:36.490Z,16.43
2022-08-04T16:43:09.001Z,18.27
2022-08-04T16:45:50.071Z,16.83
2022-08-04T16:48:19.964Z,15.87
2022-08-04T16:50:55.483Z,16.50
2022-08-04T16:53:52.781Z,17.70
2022-08-04T16:56:17.303Z,16.03
2022-08-04T16:58:54.336Z,15.43
2022-08-04T17:01:33.678Z,16.03
2022-08-04T17:04:06.446Z,16.70
2022-08-04T17:06:36.537Z,15.90
2022-08-04T17:09:10.815Z,15.50
2022-08-04T17:11:39.115Z,15.60
2022-08-04T17:14:07.935Z,16.50
2022-08-04T17:16:40.031Z,15.93
2022-08-04T17:19:23.767Z,16.57
2022-08-04T17:22:02.345Z,16.23
2022-08-04T17:24:31.428Z,25.10
2022-08-04T17:26:59.912Z,15.83
2022-08-04T17:29:43.125Z,16.10
2022-08-04T17:32:21.569Z,16.80
2022-08-04T17:34:51.136Z,15.97
2022-08-04T17:37:41.263Z,16.87
2022-08-04T17:40:25.383Z,16.03
2022-08-04T17:44:03.469Z,16.40
2022-08-04T17:49:22.079Z,15.67
2022-08-04T17:52:06.373Z,17.37
2022-08-04T17:54:43.283Z,17.87
2022-08-04T17:57:20.137Z,30.73
2022-08-04T17:59:58.782Z,29.83
2022-08-04T18:02:34.816Z,17.77
2022-08-04T18:05:11.909Z,15.53
2022-08-04T18:08:39.904Z,15.40
2022-08-04T18:13:29.286Z,15.70
2022-08-04T18:16:04.908Z,16.10
2022-08-04T18:18:33.689Z,15.77
2022-08-04T18:21:05.574Z,16.00
2022-08-04T18:23:43.463Z,16.13
2022-08-04T18:26:23.565Z,16.77
2022-08-04T18:28:52.894Z,15.93
2022-08-04T18:31:21.504Z,15.90
2022-08-04T18:33:57.173Z,14.70
2022-08-04T18:36:36.713Z,15.53
2022-08-04T18:39:12.461Z,15.70
2022-08-04T18:42:02.376Z,16.77
2022-08-04T18:44:51.881Z,16.73
2022-08-04T18:47:23.345Z,16.17
2022-08-04T20:55:25.148Z,16.20
2022-08-04T20:58:12.989Z,15.30
2022-08-04T21:01:01.665Z,15.70
2022-08-04T21:04:00.702Z,16.03
2022-08-04T21:06:54.486Z,15.80
2022-08-04T21:09:36.948Z,15.33
2022-08-04T21:12:27.605Z,17.10
2022-08-04T21:15:14.516Z,17.23
2022-08-04T21:17:59.075Z,16.10
2022-08-04T21:20:48.328Z,16.00
2022-08-04T21:23:24.130Z,15.50
2022-08-04T21:26:03.608Z,15.40
2022-08-04T21:28:50.829Z,15.73
2022-08-04T21:31:24.971Z,15.67
2022-08-04T21:33:55.890Z,15.77
2022-08-04T21:36:34.720Z,15.13
2022-08-04T21:42:28.090Z,17.07
2022-08-04T21:44:59.596Z,16.20
2022-08-04T21:47:46.614Z,17.27
2022-08-04T21:50:33.088Z,15.93
2022-08-04T21:53:17.047Z,16.17
2022-08-04T21:56:04.722Z,15.77
2022-08-04T21:59:00.854Z,15.97
2022-08-04T22:01:50.337Z,16.80
2022-08-04T22:04:41.173Z,16.60
2022-08-04T22:08:00.373Z,16.90
2022-08-04T22:11:09.633Z,16.57
2022-08-04T22:13:52.317Z,17.87
2022-08-04T22:16:38.267Z,17.00
2022-08-04T22:22:13.661Z,16.43
2022-08-04T22:28:18.912Z,16.70
2022-08-04T22:31:23.253Z,16.70
2022-08-04T22:36:56.426Z,16.93
2022-08-04T22:40:00.478Z,17.20
2022-08-04T22:42:40.583Z,17.10
2022-08-04T22:45:28.933Z,16.43
2022-08-04T23:10:10.809Z,16.77
2022-08-04T23:12:41.134Z,16.63
2022-08-04T23:15:13.224Z,16.63
2022-08-04T23:17:46.280Z,17.50
2022-08-04T23:20:23.395Z,16.83
2022-08-04T23:23:00.482Z,16.47
2022-08-04T23:26:08.419Z,16.90
2022-08-04T23:28:35.127Z,16.83
2022-08-04T23:31:06.076Z,17.37
2022-08-04T23:33:49.258Z,16.17
2022-08-04T23:36:19.617Z,16.37
2022-08-04T23:39:00.738Z,17.23
2022-08-04T23:41:53.952Z,17.50
2022-08-04T23:44:25.343Z,17.27
2022-08-04T23:46:59.748Z,17.40
2022-08-04T23:49:43.628Z,17.20
2022-08-04T23:52:23.501Z,17.37
2022-08-04T23:54:58.724Z,17.73
2022-08-04T23:58:05.257Z,17.57
